createdAt,value
2022-08-04T00:01:39.461Z,100.00
2022-08-04T00:04:15.034Z,100.00
2022-08-04T00:06:53.456Z,100.00
2022-08-04T00:09:31.060Z,100.00
2022-08-04T00:11:58.720Z,100.00
2022-08-04T00:14:26.315Z,100.00
2022-08-04T00:16:54.535Z,100.00
2022-08-04T00:19:33.131Z,100.00
2022-08-04T00:22:09.442Z,100.00
2022-08-04T00:24:37.407Z,100.00
2022-08-04T00:27:04.328Z,100.00
2022-08-04T00:29:31.175Z,100.00
2022-08-04T00:31:58.157Z,100.00
2022-08-04T00:34:27.416Z,100.00
2022-08-04T00:36:55.489Z,100.00
2022-08-04T00:39:22.792Z,100.00
2022-08-04T00:42:30.048Z,100.00
2022-08-04T00:45:18.223Z,100.00
2022-08-04T00:48:02.844Z,100.00
2022-08-04T00:51:02.712Z,100.00
2022-08-04T00:53:59.506Z,100.00
2022-08-04T00:56:59.423Z,100.00
2022-08-04T00:59:52.677Z,100.00
2022-08-04T01:02:29.636Z,100.00
2022-08-04T01:05:04.191Z,100.00
2022-08-04T01:07:30.693Z,100.00
2022-08-04T01:10:15.505Z,100.00
2022-08-04T01:13:17.671Z,100.00
2022-08-04T01:16:00.346Z,100.00
2022-08-04T01:18:54.754Z,100.00
2022-08-04T01:21:30.572Z,100.00
2022-08-04T01:23:57.076Z,100.00
2022-08-04T01:26:53.729Z,100.00
2022-08-04T01:29:29.301Z,100.00
2022-08-04T01:32:20.962Z,100.00
2022-08-04T01:34:58.767Z,100.00
2022-08-04T01:37:38.119Z,100.00
2022-08-04T01:40:07.188Z,100.00
2022-08-04T01:42:35.318Z,100.00
2022-08-04T01:45:12.076Z,100.00
2022-08-04T01:47:42.769Z,100.00
2022-08-04T01:50:12.563Z,100.00
2022-08-04T01:52:40.791Z,100.00
2022-08-04T01:55:10.282Z,100.00
2022-08-04T01:57:48.386Z,100.00
2022-08-04T02:00:23.043Z,100.00
2022-08-04T02:02:51.369Z,100.00
2022-08-04T02:05:20.535Z,100.00
2022-08-04T02:08:04.968Z,100.00
2022-08-04T02:11:02.490Z,100.00
2022-08-04T02:13:38.921Z,100.00
2022-08-04T02:16:23.998Z,100.00
2022-08-04T02:19:14.982Z,100.00
2022-08-04T02:21:42.585Z,100.00
2022-08-04T02:24:14.769Z,100.00
2022-08-04T02:26:43.305Z,100.00
2022-08-04T02:29:32.030Z,100.00
2022-08-04T02:32:05.695Z,100.00
2022-08-04T02:34:39.483Z,100.00
2022-08-04T02:37:06.294Z,100.00
2022-08-04T02:39:42.447Z,100.00
2022-08-04T02:42:15.632Z,100.00
2022-08-04T02:44:43.532Z,100.00
2022-08-04T02:47:11.024Z,100.00
2022-08-04T02:49:37.934Z,100.00
2022-08-04T02:52:10.975Z,100.00
2022-08-04T02:54:42.955Z,100.00
2022-08-04T02:57:12.228Z,100.00
2022-08-04T03:00:01.721Z,100.00
2022-08-04T03:03:06.408Z,100.00
2022-08-04T03:06:01.980Z,100.00
2022-08-04T03:09:01.693Z,100.00
2022-08-04T03:11:46.998Z,100.00
2022-08-04T03:14:32.671Z,100.00
2022-08-04T03:17:08.370Z,100.00
2022-08-04T03:20:08.994Z,100.00
2022-08-04T03:23:12.431Z,100.00
2022-08-04T03:26:03.176Z,100.00
2022-08-04T03:29:08.174Z,100.00
2022-08-04T03:31:40.810Z,100.00
2022-08-04T03:34:19.594Z,100.00
2022-08-04T03:36:49.148Z,100.00
2022-08-04T03:39:30.207Z,100.00
2022-08-04T03:42:38.402Z,100.00
2022-08-04T03:45:23.139Z,100.00
2022-08-04T03:47:53.343Z,100.00
2022-08-04T03:50:41.828Z,100.00
2022-08-04T03:53:31.862Z,100.00
2022-08-04T03:56:16.635Z,100.00
2022-08-04T03:58:46.139Z,100.00
2022-08-04T04:01:26.730Z,100.00
2022-08-04T04:04:12.603Z,100.00
2022-08-04T04:06:42.091Z,100.00
2022-08-04T04:09:28.775Z,100.00
2022-08-04T04:12:42.851Z,100.00
2022-08-04T04:15:53.828Z,100.00
2022-08-04T04:18:56.220Z,100.00
2022-08-04T04:21:25.663Z,100.00
2022-08-04T04:23:52.154Z,100.00
2022-08-04T04:26:27.507Z,100.00
2022-08-04T04:29:09.302Z,100.00
2022-08-04T04:32:06.046Z,100.00
2022-08-04T04:34:46.264Z,100.00
2022-08-04T04:37:30.678Z,100.00
2022-08-04T04:40:07.480Z,100.00
2022-08-04T04:42:55.812Z,100.00
2022-08-04T04:45:36.549Z,100.00
2022-08-04T04:48:34.810Z,100.00
2022-08-04T04:51:16.537Z,100.00
2022-08-04T04:54:19.785Z,100.00
2022-08-04T04:56:50.698Z,100.00
2022-08-04T04:59:21.046Z,100.00
2022-08-04T05:02:29.559Z,100.00
2022-08-04T05:05:14.341Z,100.00
2022-08-04T05:08:43.542Z,100.00
2022-08-04T05:11:29.464Z,100.00
2022-08-04T05:14:34.755Z,100.00
2022-08-04T05:16:57.130Z,100.00
2022-08-04T05:19:45.359Z,100.00
2022-08-04T05:22:21.339Z,100.00
2022-08-04T05:24:49.608Z,100.00
2022-08-04T05:27:24.114Z,100.00
2022-08-04T05:29:53.487Z,100.00
2022-08-04T05:32:24.126Z,100.00
2022-08-04T05:34:58.465Z,100.00
2022-08-04T05:37:28.320Z,100.00
2022-08-04T05:39:58.892Z,100.00
2022-08-04T05:42:26.582Z,100.00
2022-08-04T05:44:54.578Z,100.00
2022-08-04T05:47:22.441Z,100.00
2022-08-04T05:49:55.618Z,100.00
2022-08-04T05:52:30.180Z,100.00
2022-08-04T05:54:58.900Z,100.00
2022-08-04T05:57:26.243Z,100.00
2022-08-04T05:59:53.799Z,100.00
2022-08-04T06:02:20.679Z,75.38
2022-08-04T06:04:50.138Z,72.47
2022-08-04T06:07:17.287Z,66.30
2022-08-04T06:09:43.911Z,65.66
2022-08-04T06:12:27.054Z,64.59
2022-08-04T06:14:59.707Z,61.68
2022-08-04T06:18:33.110Z,58.62
2022-08-04T06:20:23.928Z,57.81
2022-08-04T06:22:54.549Z,56.98
2022-08-04T06:25:24.288Z,57.12
2022-08-04T06:27:51.998Z,56.48
2022-08-04T06:30:19.924Z,56.78
2022-08-04T06:32:48.101Z,54.73
2022-08-04T06:35:17.778Z,53.92
2022-08-04T06:37:45.723Z,53.46
2022-08-04T06:40:31.783Z,51.40
2022-08-04T06:43:04.195Z,51.12
2022-08-04T06:45:31.553Z,50.81
2022-08-04T06:47:58.532Z,48.86
2022-08-04T06:51:24.725Z,49.36
2022-08-04T06:53:11.880Z,48.24
2022-08-04T06:55:38.520Z,48.35
2022-08-04T06:58:06.240Z,48.50
2022-08-04T07:00:34.502Z,48.59
2022-08-04T07:03:01.538Z,48.11
2022-08-04T07:05:28.549Z,48.98
2022-08-04T07:07:57.085Z,48.76
2022-08-04T07:10:25.720Z,48.78
2022-08-04T07:12:53.031Z,48.37
2022-08-04T07:15:20.830Z,47.80
2022-08-04T07:17:51.976Z,47.50
2022-08-04T07:20:34.167Z,47.36
2022-08-04T07:23:06.307Z,49.41
2022-08-04T07:25:58.720Z,48.59
2022-08-04T07:28:24.762Z,46.98
2022-08-04T07:30:51.467Z,48.16
2022-08-04T07:33:18.622Z,49.01
2022-08-04T07:36:04.393Z,48.12
2022-08-04T07:38:33.289Z,47.14
2022-08-04T07:41:03.898Z,48.29
2022-08-04T07:43:31.345Z,47.87
2022-08-04T07:45:57.916Z,46.41
2022-08-04T07:48:24.476Z,46.47
2022-08-04T07:50:51.214Z,46.47
2022-08-04T07:53:55.372Z,45.34
2022-08-04T07:56:05.200Z,44.90
2022-08-04T07:58:32.101Z,44.36
2022-08-04T08:00:58.865Z,42.95
2022-08-04T08:03:26.108Z,44.01
2022-08-04T08:05:54.558Z,44.65
2022-08-04T08:08:40.068Z,43.54
2022-08-04T08:11:10.850Z,42.59
2022-08-04T08:13:37.435Z,41.85
2022-08-04T08:16:05.014Z,40.17
2022-08-04T08:18:32.169Z,43.41
2022-08-04T08:20:58.816Z,40.30
2022-08-04T08:23:26.237Z,41.61
2022-08-04T08:25:52.927Z,40.64
2022-08-04T08:28:19.557Z,37.31
2022-08-04T08:30:46.130Z,38.02
2022-08-04T08:33:20.798Z,37.96
2022-08-04T08:36:04.502Z,39.81
2022-08-04T08:38:52.824Z,38.93
2022-08-04T08:41:34.696Z,38.80
2022-08-04T08:44:43.443Z,38.85
2022-08-04T08:47:09.917Z,38.75
2022-08-04T08:50:04.387Z,37.49
2022-08-04T08:52:56.207Z,38.24
2022-08-04T08:55:40.033Z,36.72
2022-08-04T08:58:14.462Z,36.84
2022-08-04T09:00:53.120Z,36.59
2022-08-04T09:03:57.237Z,39.07
2022-08-04T09:06:26.806Z,37.69
2022-08-04T09:09:05.544Z,34.64
2022-08-04T09:11:46.482Z,34.99
2022-08-04T09:14:20.658Z,35.51
2022-08-04T09:16:54.241Z,35.38
2022-08-04T09:19:38.259Z,34.51
2022-08-04T09:22:19.852Z,35.40
2022-08-04T09:24:52.921Z,33.97
2022-08-04T09:27:28.785Z,34.54
2022-08-04T09:30:05.715Z,34.45
2022-08-04T09:32:35.246Z,32.13
2022-08-04T09:35:26.102Z,33.18
2022-08-04T09:38:11.944Z,34.47
2022-08-04T09:40:53.148Z,32.83
2022-08-04T09:43:59.270Z,32.91
2022-08-04T09:46:47.074Z,33.68
2022-08-04T09:49:21.926Z,32.87
2022-08-04T09:51:57.261Z,31.78
2022-08-04T09:54:42.798Z,31.28
2022-08-04T09:57:17.503Z,30.89
2022-08-04T10:00:04.042Z,30.93
2022-08-04T10:02:45.327Z,28.94
2022-08-04T10:05:21.128Z,28.65
2022-08-04T10:08:16.309Z,26.69
2022-08-04T10:10:56.235Z,23.00
2022-08-04T10:13:25.620Z,23.10
2022-08-04T10:16:12.251Z,22.47
2022-08-04T10:18:50.875Z,21.50
2022-08-04T10:21:17.413Z,20.93
2022-08-04T10:24:00.434Z,20.61
2022-08-04T10:26:43.326Z,20.18
2022-08-04T10:29:17.326Z,20.28
2022-08-04T10:32:13.407Z,21.28
2022-08-04T10:34:44.379Z,21.67
2022-08-04T10:37:20.590Z,21.52
2022-08-04T10:40:13.938Z,21.23
2022-08-04T10:42:50.493Z,19.73
2022-08-04T10:45:19.833Z,19.31
2022-08-04T10:48:01.545Z,19.01
2022-08-04T10:50:29.024Z,19.23
2022-08-04T10:53:01.182Z,18.15
2022-08-04T10:56:06.952Z,17.29
2022-08-04T10:58:48.680Z,17.29
2022-08-04T11:02:00.962Z,16.13
2022-08-04T11:04:12.620Z,15.99
2022-08-04T11:06:40.232Z,14.89
2022-08-04T11:09:07.516Z,15.04
2022-08-04T11:12:00.179Z,15.72
2022-08-04T11:14:39.052Z,15.75
2022-08-04T11:17:08.515Z,16.33
2022-08-04T11:19:53.161Z,15.48
2022-08-04T11:22:22.943Z,14.62
2022-08-04T11:25:21.713Z,16.88
2022-08-04T11:28:02.943Z,18.30
2022-08-04T11:30:58.250Z,18.85
2022-08-04T11:33:28.551Z,19.06
2022-08-04T11:36:33.142Z,18.40
2022-08-04T11:39:11.381Z,18.04
2022-08-04T11:41:42.598Z,18.12
2022-08-04T11:44:13.033Z,18.52
2022-08-04T11:46:42.492Z,18.46
2022-08-04T11:49:16.937Z,19.55
2022-08-04T11:51:44.796Z,20.72
2022-08-04T11:54:12.347Z,20.63
2022-08-04T11:56:38.913Z,21.41
2022-08-04T11:59:08.262Z,20.80
2022-08-04T12:01:48.732Z,17.62
2022-08-04T12:04:50.672Z,15.29
2022-08-04T12:07:30.405Z,14.16
2022-08-04T12:10:16.015Z,14.57
2022-08-04T12:13:23.740Z,15.59
2022-08-04T12:16:17.586Z,14.47
2022-08-04T12:19:15.491Z,12.35
2022-08-04T12:21:53.188Z,13.20
2022-08-04T12:24:26.696Z,13.02
2022-08-04T12:26:56.555Z,10.91
2022-08-04T12:29:24.257Z,10.61
2022-08-04T12:32:28.525Z,11.50
2022-08-04T12:35:04.450Z,13.15
2022-08-04T12:38:04.977Z,15.44
2022-08-04T12:40:41.291Z,16.29
2022-08-04T12:43:25.395Z,17.44
2022-08-04T12:45:54.273Z,18.17
2022-08-04T12:48:23.060Z,18.60
2022-08-04T12:50:54.342Z,18.22
2022-08-04T12:53:32.218Z,19.95
2022-08-04T12:56:01.680Z,20.37
2022-08-04T12:58:42.600Z,20.78
2022-08-04T13:02:08.058Z,22.00
2022-08-04T13:04:18.415Z,22.60
2022-08-04T13:06:45.142Z,22.89
2022-08-04T13:09:18.281Z,23.26
2022-08-04T13:11:51.739Z,24.25
2022-08-04T13:14:27.054Z,23.77
2022-08-04T13:17:01.746Z,24.02
2022-08-04T13:19:29.692Z,24.00
2022-08-04T13:22:03.284Z,24.28
2022-08-04T13:24:37.598Z,24.74
2022-08-04T13:27:21.527Z,24.09
2022-08-04T13:29:57.693Z,24.28
2022-08-04T13:32:28.654Z,24.58
2022-08-04T13:34:56.446Z,24.79
2022-08-04T13:37:31.749Z,24.73
2022-08-04T13:39:59.610Z,24.62
2022-08-04T13:42:27.240Z,24.68
2022-08-04T13:44:57.230Z,25.19
2022-08-04T13:47:34.922Z,25.54
2022-08-04T13:50:11.788Z,26.13
2022-08-04T13:52:40.825Z,26.98
2022-08-04T13:55:08.169Z,27.05
2022-08-04T13:57:44.468Z,26.57
2022-08-04T14:00:12.176Z,26.38
2022-08-04T14:02:47.713Z,25.06
2022-08-04T14:05:27.056Z,24.69
2022-08-04T14:08:12.334Z,25.21
2022-08-04T14:10:39.941Z,25.88
2022-08-04T14:13:07.179Z,26.66
2022-08-04T14:16:02.443Z,27.03
2022-08-04T14:18:32.077Z,26.13
2022-08-04T14:20:59.287Z,26.59
2022-08-04T14:23:31.727Z,25.26
2022-08-04T14:25:59.682Z,26.61
2022-08-04T14:29:08.470Z,27.41
2022-08-04T14:31:20.487Z,29.12
2022-08-04T14:34:02.006Z,30.89
2022-08-04T14:37:13.192Z,31.84
2022-08-04T14:40:17.952Z,32.93
2022-08-04T14:42:53.760Z,32.73
2022-08-04T14:45:32.033Z,33.51
2022-08-04T14:47:59.263Z,33.52
2022-08-04T14:50:40.349Z,32.56
2022-08-04T14:53:19.092Z,31.96
2022-08-04T14:55:48.107Z,32.13
2022-08-04T14:58:36.168Z,31.66
2022-08-04T15:01:10.739Z,33.12
2022-08-04T15:03:50.452Z,33.85
2022-08-04T15:06:27.299Z,34.36
2022-08-04T15:08:56.835Z,34.30
2022-08-04T15:11:24.578Z,34.46
2022-08-04T15:13:55.753Z,34.29
2022-08-04T15:16:23.648Z,34.48
2022-08-04T15:18:50.962Z,34.75
2022-08-04T15:21:21.203Z,35.14
2022-08-04T15:23:48.492Z,35.80
2022-08-04T15:26:42.078Z,36.23
2022-08-04T15:29:16.831Z,35.90
2022-08-04T15:32:05.838Z,35.94
2022-08-04T15:34:47.237Z,37.31
2022-08-04T15:37:23.007Z,37.66
2022-08-04T15:40:07.671Z,38.02
2022-08-04T15:43:00.384Z,39.43
2022-08-04T15:46:37.122Z,40.03
2022-08-04T15:48:17.582Z,41.09
2022-08-04T15:50:56.808Z,40.66
2022-08-04T15:54:01.166Z,41.62
2022-08-04T15:56:24.147Z,42.05
2022-08-04T15:58:55.127Z,42.61
2022-08-04T16:01:22.024Z,42.94
2022-08-04T16:04:00.278Z,42.78
2022-08-04T16:06:29.873Z,43.04
2022-08-04T16:09:00.976Z,42.41
2022-08-04T16:11:32.549Z,42.20
2022-08-04T16:13:59.687Z,43.06
2022-08-04T16:16:29.754Z,42.80
2022-08-04T16:19:19.695Z,42.71
2022-08-04T16:21:51.073Z,42.83
2022-08-04T16:24:22.672Z,42.74
2022-08-04T16:26:56.463Z,42.85
2022-08-04T16:29:23.347Z,42.87
2022-08-04T16:32:05.545Z,43.89
2022-08-04T16:34:48.594Z,44.12
2022-08-04T16:37:18.983Z,43.59
2022-08-04T16:39:50.533Z,44.61
2022-08-04T16:42:30.463Z,45.17
2022-08-04T16:45:11.616Z,46.04
2022-08-04T16:47:47.417Z,46.24
2022-08-04T16:50:18.389Z,46.69
2022-08-04T16:52:46.736Z,47.09
2022-08-04T16:55:18.398Z,47.66
2022-08-04T16:57:53.694Z,48.62
2022-08-04T17:00:36.756Z,49.02
2022-08-04T17:03:09.171Z,49.97
2022-08-04T17:05:38.648Z,50.54
2022-08-04T17:08:29.242Z,51.08
2022-08-04T17:10:54.196Z,52.09
2022-08-04T17:14:02.930Z,53.37
2022-08-04T17:16:21.025Z,54.08
2022-08-04T17:18:49.606Z,58.60
2022-08-04T17:21:20.360Z,69.27
2022-08-04T17:24:14.988Z,83.37
2022-08-04T17:26:40.188Z,91.47
2022-08-04T17:29:08.599Z,100.00
2022-08-04T17:31:38.093Z,100.00
2022-08-04T17:34:16.052Z,100.00
2022-08-04T17:36:46.170Z,100.00
2022-08-04T17:39:17.682Z,100.00
2022-08-04T17:41:48.702Z,100.00
2022-08-04T17:44:16.392Z,100.00
2022-08-04T17:46:45.595Z,100.00
2022-08-04T17:49:16.957Z,100.00
2022-08-04T17:52:05.705Z,100.00
2022-08-04T17:54:37.367Z,100.00
2022-08-04T18:00:04.305Z,100.00
2022-08-04T18:02:34.439Z,100.00
2022-08-04T18:05:07.925Z,100.00
2022-08-04T18:08:38.623Z,100.00
2022-08-04T18:10:54.770Z,100.00
2022-08-04T18:13:27.214Z,100.00
2022-08-04T18:16:03.947Z,100.00
2022-08-04T18:18:30.685Z,100.00
2022-08-04T18:21:02.619Z,100.00
2022-08-04T18:23:31.705Z,100.00
2022-08-04T18:25:59.578Z,100.00
2022-08-04T18:28:30.854Z,100.00
2022-08-04T18:31:00.039Z,100.00
2022-08-04T18:33:39.703Z,100.00
2022-08-04T18:36:35.338Z,100.00
2022-08-04T18:39:12.461Z,100.00
2022-08-04T18:44:29.458Z,100.00
2022-08-04T18:46:57.915Z,100.00
2022-08-04T18:50:58.964Z,100.00
2022-08-04T18:52:31.214Z,100.00
2022-08-04T18:54:57.746Z,100.00
2022-08-04T18:57:59.131Z,100.00
2022-08-04T19:00:16.271Z,100.00
2022-08-04T19:02:46.499Z,100.00
2022-08-04T19:05:17.365Z,100.00
2022-08-04T19:08:01.408Z,100.00
2022-08-04T19:10:29.497Z,100.00
2022-08-04T19:12:56.306Z,100.00
2022-08-04T19:15:34.877Z,100.00
2022-08-04T19:18:02.376Z,100.00
2022-08-04T19:20:33.663Z,100.00
2022-08-04T19:24:10.811Z,100.00
2022-08-04T19:26:01.221Z,100.00
2022-08-04T19:28:34.987Z,100.00
2022-08-04T19:31:09.496Z,100.00
2022-08-04T19:33:59.414Z,100.00
2022-08-04T19:36:27.968Z,100.00
2022-08-04T19:39:00.356Z,100.00
2022-08-04T19:41:29.446Z,100.00
2022-08-04T19:43:57.894Z,100.00
2022-08-04T19:46:27.843Z,100.00
2022-08-04T19:48:59.093Z,100.00
2022-08-04T19:51:28.337Z,100.00
2022-08-04T19:54:02.532Z,100.00
2022-08-04T19:56:39.984Z,100.00
2022-08-04T19:59:08.166Z,100.00
2022-08-04T20:01:43.733Z,100.00
2022-08-04T20:04:11.687Z,100.00
2022-08-04T20:06:39.393Z,100.00
2022-08-04T20:09:26.062Z,100.00
2022-08-04T20:11:53.043Z,100.00
2022-08-04T20:14:20.114Z,100.00
2022-08-04T20:16:58.949Z,100.00
2022-08-04T20:19:25.742Z,100.00
2022-08-04T20:21:56.512Z,100.00
2022-08-04T20:24:39.944Z,100.00
2022-08-04T20:27:14.661Z,100.00
2022-08-04T20:29:49.512Z,100.00
2022-08-04T20:32:26.798Z,100.00
2022-08-04T20:34:54.975Z,100.00
2022-08-04T20:37:23.505Z,100.00
2022-08-04T20:39:58.066Z,100.00
2022-08-04T20:42:33.776Z,100.00
2022-08-04T20:45:01.464Z,100.00
2022-08-04T20:47:34.964Z,100.00
2022-08-04T20:50:04.320Z,100.00
2022-08-04T20:52:33.092Z,100.00
2022-08-04T20:55:04.371Z,100.00
2022-08-04T20:57:48.641Z,100.00
2022-08-04T21:00:26.242Z,100.00
2022-08-04T21:02:57.228Z,100.00
2022-08-04T21:05:23.798Z,100.00
2022-08-04T21:07:56.587Z,100.00
2022-08-04T21:10:26.851Z,100.00
2022-08-04T21:12:54.359Z,100.00
2022-08-04T21:15:25.649Z,100.00
2022-08-04T21:17:59.191Z,100.00
2022-08-04T21:20:32.445Z,100.00
2022-08-04T21:23:01.989Z,100.00
2022-08-04T21:25:29.462Z,100.00
2022-08-04T21:27:58.865Z,100.00
2022-08-04T21:30:30.714Z,100.00
2022-08-04T21:32:57.278Z,100.00
2022-08-04T21:35:37.013Z,100.00
2022-08-04T21:38:16.586Z,100.00
2022-08-04T21:40:57.760Z,100.00
2022-08-04T21:43:27.325Z,100.00
2022-08-04T21:45:55.644Z,100.00
2022-08-04T21:48:22.760Z,100.00
2022-08-04T21:50:50.774Z,100.00
2022-08-04T21:53:19.544Z,100.00
2022-08-04T21:56:06.773Z,100.00
2022-08-04T21:58:34.968Z,100.00
2022-08-04T22:01:06.079Z,100.00
2022-08-04T22:03:52.295Z,100.00
2022-08-04T22:06:28.076Z,100.00
2022-08-04T22:08:56.461Z,100.00
2022-08-04T22:11:48.802Z,100.00
2022-08-04T22:14:17.525Z,100.00
2022-08-04T22:16:56.414Z,100.00
2022-08-04T22:19:25.138Z,100.00
2022-08-04T22:22:06.715Z,100.00
2022-08-04T22:24:36.112Z,100.00
2022-08-04T22:27:03.087Z,100.00
2022-08-04T22:29:47.354Z,100.00
2022-08-04T22:32:14.053Z,100.00
2022-08-04T22:34:45.599Z,100.00
2022-08-04T22:37:19.728Z,100.00
2022-08-04T22:39:56.678Z,100.00
2022-08-04T22:42:23.891Z,100.00
2022-08-04T22:44:50.690Z,100.00
2022-08-04T22:47:23.485Z,100.00
2022-08-04T22:49:56.532Z,100.00
2022-08-04T22:52:37.238Z,100.00
2022-08-04T22:55:22.250Z,100.00
2022-08-04T22:58:05.007Z,100.00
2022-08-04T23:00:35.732Z,100.00
2022-08-04T23:03:02.310Z,100.00
2022-08-04T23:05:35.927Z,100.00
2022-08-04T23:08:04.136Z,100.00
2022-08-04T23:10:32.227Z,100.00
2022-08-04T23:12:59.658Z,100.00
2022-08-04T23:15:33.735Z,100.00
2022-08-04T23:18:00.480Z,100.00
2022-08-04T23:20:33.117Z,100.00
2022-08-04T23:23:14.712Z,100.00
2022-08-04T23:26:07.367Z,100.00
2022-08-04T23:28:31.071Z,100.00
2022-08-04T23:30:57.609Z,100.00
2022-08-04T23:33:24.201Z,100.00
2022-08-04T23:36:10.715Z,100.00
2022-08-04T23:38:39.249Z,100.00
2022-08-04T23:41:13.274Z,100.00
2022-08-04T23:43:55.230Z,100.00
2022-08-04T23:46:22.807Z,100.00
2022-08-04T23:48:49.591Z,100.00
2022-08-04T23:51:16.544Z,100.00
2022-08-04T23:54:03.274Z,100.00
2022-08-04T23:56:32.403Z,100.00
2022-08-04T23:59:00.130Z,100.00
